sensor_id;sensor_type;location;lat;lon;timestamp;P1;durP1;ratioP1;P2;durP2;ratioP2
2644;SDS011;15377;48.540;9.268;2024-01-16T00:01:37;8.63;;;4.03;;
2644;SDS011;15377;48.540;9.268;2024-01-16T00:04:03;8.57;;;3.53;;
2644;SDS011;15377;48.540;9.268;2024-01-16T00:06:28;13.60;;;4.73;;
2644;SDS011;15377;48.540;9.268;2024-01-16T00:08:53;7.40;;;3.30;;
2644;SDS011;15377;48.540;9.268;2024-01-16T00:11:19;10.73;;;4.27;;
2644;SDS011;15377;48.540;9.268;2024-01-16T00:13:44;7.90;;;3.30;;
2644;SDS011;15377;48.540;9.268;2024-01-16T00:16:09;9.53;;;4.30;;
2644;SDS011;15377;48.540;9.268;2024-01-16T00:18:35;7.80;;;3.60;;
2644;SDS011;15377;48.540;9.268;2024-01-16T00:21:00;9.13;;;4.03;;
2644;SDS011;15377;48.540;9.268;2024-01-16T00:23:27;8.05;;;3.45;;
2644;SDS011;15377;48.540;9.268;2024-01-16T00:25:53;8.20;;;3.47;;
2644;SDS011;15377;48.540;9.268;2024-01-16T00:28:18;14.40;;;4.63;;
2644;SDS011;15377;48.540;9.268;2024-01-16T00:30:44;8.07;;;3.80;;
2644;SDS011;15377;48.540;9.268;2024-01-16T00:33:10;8.27;;;3.93;;
2644;SDS011;15377;48.540;9.268;2024-01-16T00:35:37;12.18;;;4.15;;
2644;SDS011;15377;48.540;9.268;2024-01-16T00:38:02;10.13;;;4.53;;
2644;SDS011;15377;48.540;9.268;2024-01-16T00:40:28;8.97;;;3.87;;
2644;SDS011;15377;48.540;9.268;2024-01-16T00:42:53;9.80;;;3.50;;
2644;SDS011;15377;48.540;9.268;2024-01-16T00:45:18;8.80;;;3.70;;
2644;SDS011;15377;48.540;9.268;2024-01-16T00:47:44;10.27;;;3.90;;
2644;SDS011;15377;48.540;9.268;2024-01-16T00:50:09;11.50;;;3.10;;
2644;SDS011;15377;48.540;9.268;2024-01-16T00:52:34;8.60;;;3.40;;
2644;SDS011;15377;48.540;9.268;2024-01-16T00:55:00;9.07;;;3.67;;
2644;SDS011;15377;48.540;9.268;2024-01-16T00:57:25;7.57;;;3.70;;
2644;SDS011;15377;48.540;9.268;2024-01-16T00:59:51;8.37;;;3.57;;
2644;SDS011;15377;48.540;9.268;2024-01-16T01:02:16;9.37;;;4.03;;
2644;SDS011;15377;48.540;9.268;2024-01-16T01:04:42;7.77;;;3.50;;
2644;SDS011;15377;48.540;9.268;2024-01-16T01:07:08;15.73;;;4.20;;
2644;SDS011;15377;48.540;9.268;2024-01-16T01:09:33;11.30;;;3.90;;
2644;SDS011;15377;48.540;9.268;2024-01-16T01:11:58;9.90;;;3.57;;
2644;SDS011;15377;48.540;9.268;2024-01-16T01:14:24;8.80;;;4.50;;
2644;SDS011;15377;48.540;9.268;2024-01-16T01:16:50;9.00;;;3.70;;
2644;SDS011;15377;48.540;9.268;2024-01-16T01:19:16;9.40;;;4.00;;
2644;SDS011;15377;48.540;9.268;2024-01-16T01:21:41;6.93;;;3.30;;
2644;SDS011;15377;48.540;9.268;2024-01-16T01:24:07;11.90;;;3.83;;
2644;SDS011;15377;48.540;9.268;2024-01-16T01:26:32;7.27;;;3.07;;
2644;SDS011;15377;48.540;9.268;2024-01-16T01:28:57;7.80;;;3.43;;
2644;SDS011;15377;48.540;9.268;2024-01-16T01:31:23;8.03;;;3.83;;
2644;SDS011;15377;48.540;9.268;2024-01-16T01:33:48;8.10;;;3.27;;
2644;SDS011;15377;48.540;9.268;2024-01-16T01:36:13;10.43;;;3.80;;
2644;SDS011;15377;48.540;9.268;2024-01-16T01:38:39;9.73;;;4.67;;
2644;SDS011;15377;48.540;9.268;2024-01-16T01:41:04;7.90;;;3.67;;
2644;SDS011;15377;48.540;9.268;2024-01-16T01:43:30;7.90;;;3.60;;
2644;SDS011;15377;48.540;9.268;2024-01-16T01:46:09;10.37;;;4.07;;
2644;SDS011;15377;48.540;9.268;2024-01-16T01:48:44;10.10;;;3.88;;
2644;SDS011;15377;48.540;9.268;2024-01-16T01:51:13;9.68;;;4.22;;
2644;SDS011;15377;48.540;9.268;2024-01-16T01:53:39;9.15;;;3.88;;
2644;SDS011;15377;48.540;9.268;2024-01-16T01:56:10;9.18;;;4.35;;
2644;SDS011;15377;48.540;9.268;2024-01-16T01:58:39;8.30;;;4.15;;
2644;SDS011;15377;48.540;9.268;2024-01-16T02:01:08;8.65;;;4.25;;
2644;SDS011;15377;48.540;9.268;2024-01-16T02:03:35;8.35;;;3.65;;
2644;SDS011;15377;48.540;9.268;2024-01-16T02:06:06;6.95;;;3.30;;
2644;SDS011;15377;48.540;9.268;2024-01-16T02:08:32;8.05;;;3.80;;
2644;SDS011;15377;48.540;9.268;2024-01-16T02:10:57;9.13;;;4.00;;
2644;SDS011;15377;48.540;9.268;2024-01-16T02:13:23;7.43;;;3.37;;
2644;SDS011;15377;48.540;9.268;2024-01-16T02:15:49;10.23;;;4.20;;
2644;SDS011;15377;48.540;9.268;2024-01-16T02:18:15;8.43;;;3.60;;
2644;SDS011;15377;48.540;9.268;2024-01-16T02:20:41;8.30;;;3.50;;
2644;SDS011;15377;48.540;9.268;2024-01-16T02:23:07;9.30;;;4.00;;
2644;SDS011;15377;48.540;9.268;2024-01-16T02:25:32;9.53;;;3.70;;
2644;SDS011;15377;48.540;9.268;2024-01-16T02:27:59;7.80;;;3.30;;
2644;SDS011;15377;48.540;9.268;2024-01-16T02:30:25;9.20;;;3.75;;
2644;SDS011;15377;48.540;9.268;2024-01-16T02:32:50;9.17;;;4.10;;
2644;SDS011;15377;48.540;9.268;2024-01-16T02:35:16;9.90;;;3.83;;
2644;SDS011;15377;48.540;9.268;2024-01-16T02:37:43;10.93;;;4.05;;
2644;SDS011;15377;48.540;9.268;2024-01-16T02:40:09;8.30;;;3.73;;
2644;SDS011;15377;48.540;9.268;2024-01-16T02:42:35;7.45;;;3.40;;
2644;SDS011;15377;48.540;9.268;2024-01-16T02:45:02;8.07;;;4.00;;
2644;SDS011;15377;48.540;9.268;2024-01-16T02:47:28;8.45;;;3.97;;
2644;SDS011;15377;48.540;9.268;2024-01-16T02:49:54;13.70;;;4.17;;
2644;SDS011;15377;48.540;9.268;2024-01-16T02:52:19;8.30;;;4.03;;
2644;SDS011;15377;48.540;9.268;2024-01-16T02:54:45;7.50;;;3.60;;
2644;SDS011;15377;48.540;9.268;2024-01-16T02:57:11;8.43;;;3.83;;
2644;SDS011;15377;48.540;9.268;2024-01-16T02:59:36;8.20;;;3.33;;
2644;SDS011;15377;48.540;9.268;2024-01-16T03:02:01;8.57;;;3.63;;
2644;SDS011;15377;48.540;9.268;2024-01-16T03:04:27;10.97;;;4.20;;
2644;SDS011;15377;48.540;9.268;2024-01-16T03:06:53;9.33;;;3.73;;
2644;SDS011;15377;48.540;9.268;2024-01-16T03:09:18;9.70;;;3.90;;
2644;SDS011;15377;48.540;9.268;2024-01-16T03:11:43;7.57;;;3.60;;
2644;SDS011;15377;48.540;9.268;2024-01-16T03:14:09;7.90;;;3.70;;
2644;SDS011;15377;48.540;9.268;2024-01-16T03:16:34;11.77;;;4.47;;
2644;SDS011;15377;48.540;9.268;2024-01-16T03:19:00;8.40;;;4.07;;
2644;SDS011;15377;48.540;9.268;2024-01-16T03:21:25;8.90;;;3.50;;
2644;SDS011;15377;48.540;9.268;2024-01-16T03:23:51;8.00;;;3.43;;
2644;SDS011;15377;48.540;9.268;2024-01-16T03:26:16;7.80;;;3.40;;
2644;SDS011;15377;48.540;9.268;2024-01-16T03:28:42;8.43;;;4.60;;
2644;SDS011;15377;48.540;9.268;2024-01-16T03:31:07;7.80;;;3.20;;
2644;SDS011;15377;48.540;9.268;2024-01-16T03:33:33;9.80;;;3.23;;
2644;SDS011;15377;48.540;9.268;2024-01-16T03:36:06;7.43;;;3.20;;
2644;SDS011;15377;48.540;9.268;2024-01-16T03:38:32;9.20;;;3.40;;
2644;SDS011;15377;48.540;9.268;2024-01-16T03:40:59;9.07;;;3.15;;
2644;SDS011;15377;48.540;9.268;2024-01-16T03:43:24;7.67;;;3.63;;
2644;SDS011;15377;48.540;9.268;2024-01-16T03:45:49;7.90;;;3.33;;
2644;SDS011;15377;48.540;9.268;2024-01-16T03:48:15;7.70;;;3.20;;
2644;SDS011;15377;48.540;9.268;2024-01-16T03:50:40;11.07;;;3.90;;
2644;SDS011;15377;48.540;9.268;2024-01-16T03:53:08;7.60;;;3.42;;
2644;SDS011;15377;48.540;9.268;2024-01-16T03:55:34;8.43;;;3.30;;
2644;SDS011;15377;48.540;9.268;2024-01-16T03:57:59;9.53;;;3.47;;
2644;SDS011;15377;48.540;9.268;2024-01-16T04:00:24;8.93;;;3.23;;
2644;SDS011;15377;48.540;9.268;2024-01-16T04:02:50;7.70;;;3.37;;
2644;SDS011;15377;48.540;9.268;2024-01-16T04:05:15;9.30;;;3.63;;
2644;SDS011;15377;48.540;9.268;2024-01-16T04:07:41;7.73;;;3.10;;
2644;SDS011;15377;48.540;9.268;2024-01-16T04:10:06;8.17;;;3.00;;
2644;SDS011;15377;48.540;9.268;2024-01-16T04:12:32;9.85;;;3.63;;
2644;SDS011;15377;48.540;9.268;2024-01-16T04:14:57;8.20;;;3.30;;
2644;SDS011;15377;48.540;9.268;2024-01-16T04:17:23;9.00;;;4.10;;
2644;SDS011;15377;48.540;9.268;2024-01-16T04:19:48;7.87;;;3.60;;
2644;SDS011;15377;48.540;9.268;2024-01-16T04:22:13;10.00;;;3.20;;
2644;SDS011;15377;48.540;9.268;2024-01-16T04:24:39;8.70;;;3.83;;
2644;SDS011;15377;48.540;9.268;2024-01-16T04:27:04;11.07;;;3.93;;
2644;SDS011;15377;48.540;9.268;2024-01-16T04:29:30;8.37;;;3.53;;
2644;SDS011;15377;48.540;9.268;2024-01-16T04:31:55;7.60;;;3.60;;
2644;SDS011;15377;48.540;9.268;2024-01-16T04:34:21;11.15;;;3.38;;
2644;SDS011;15377;48.540;9.268;2024-01-16T04:36:47;10.50;;;3.90;;
2644;SDS011;15377;48.540;9.268;2024-01-16T04:39:13;10.38;;;4.32;;
2644;SDS011;15377;48.540;9.268;2024-01-16T04:41:38;9.97;;;3.87;;
2644;SDS011;15377;48.540;9.268;2024-01-16T04:44:04;8.47;;;3.87;;
2644;SDS011;15377;48.540;9.268;2024-01-16T04:46:29;8.47;;;4.03;;
2644;SDS011;15377;48.540;9.268;2024-01-16T04:48:55;8.93;;;3.33;;
2644;SDS011;15377;48.540;9.268;2024-01-16T04:51:20;6.47;;;2.40;;
2644;SDS011;15377;48.540;9.268;2024-01-16T04:53:45;7.67;;;3.97;;
2644;SDS011;15377;48.540;9.268;2024-01-16T04:56:10;10.07;;;4.17;;
2644;SDS011;15377;48.540;9.268;2024-01-16T04:58:36;7.47;;;3.00;;
2644;SDS011;15377;48.540;9.268;2024-01-16T05:01:01;9.10;;;3.70;;
2644;SDS011;15377;48.540;9.268;2024-01-16T05:03:27;7.68;;;3.40;;
2644;SDS011;15377;48.540;9.268;2024-01-16T05:05:52;7.33;;;3.57;;
2644;SDS011;15377;48.540;9.268;2024-01-16T05:08:18;9.63;;;3.97;;
2644;SDS011;15377;48.540;9.268;2024-01-16T05:10:43;8.53;;;3.50;;
2644;SDS011;15377;48.540;9.268;2024-01-16T05:13:09;8.63;;;3.73;;
2644;SDS011;15377;48.540;9.268;2024-01-16T05:15:36;7.78;;;3.25;;
2644;SDS011;15377;48.540;9.268;2024-01-16T05:18:01;8.37;;;3.03;;
2644;SDS011;15377;48.540;9.268;2024-01-16T05:20:28;8.25;;;3.75;;
2644;SDS011;15377;48.540;9.268;2024-01-16T05:22:54;8.37;;;4.10;;
2644;SDS011;15377;48.540;9.268;2024-01-16T05:25:19;7.60;;;3.50;;
2644;SDS011;15377;48.540;9.268;2024-01-16T05:27:46;10.93;;;3.80;;
2644;SDS011;15377;48.540;9.268;2024-01-16T05:30:11;7.63;;;2.80;;
2644;SDS011;15377;48.540;9.268;2024-01-16T05:32:37;10.43;;;3.77;;
2644;SDS011;15377;48.540;9.268;2024-01-16T05:35:04;8.55;;;4.15;;
2644;SDS011;15377;48.540;9.268;2024-01-16T05:37:30;10.73;;;3.47;;
2644;SDS011;15377;48.540;9.268;2024-01-16T05:39:55;7.87;;;4.43;;
2644;SDS011;15377;48.540;9.268;2024-01-16T05:42:20;7.53;;;3.40;;
2644;SDS011;15377;48.540;9.268;2024-01-16T05:44:46;11.43;;;3.50;;
2644;SDS011;15377;48.540;9.268;2024-01-16T05:47:11;10.47;;;3.87;;
2644;SDS011;15377;48.540;9.268;2024-01-16T05:49:37;9.53;;;3.47;;
2644;SDS011;15377;48.540;9.268;2024-01-16T05:52:02;7.03;;;3.20;;
2644;SDS011;15377;48.540;9.268;2024-01-16T05:54:28;10.10;;;3.83;;
2644;SDS011;15377;48.540;9.268;2024-01-16T05:56:54;11.60;;;4.60;;
2644;SDS011;15377;48.540;9.268;2024-01-16T05:59:19;11.10;;;3.63;;
2644;SDS011;15377;48.540;9.268;2024-01-16T06:01:44;6.90;;;3.13;;
2644;SDS011;15377;48.540;9.268;2024-01-16T06:04:10;8.43;;;3.80;;
2644;SDS011;15377;48.540;9.268;2024-01-16T06:06:35;9.00;;;4.23;;
2644;SDS011;15377;48.540;9.268;2024-01-16T06:09:01;7.70;;;4.13;;
2644;SDS011;15377;48.540;9.268;2024-01-16T06:11:33;8.13;;;3.05;;
2644;SDS011;15377;48.540;9.268;2024-01-16T06:13:59;8.68;;;3.97;;
2644;SDS011;15377;48.540;9.268;2024-01-16T06:16:25;9.97;;;4.10;;
2644;SDS011;15377;48.540;9.268;2024-01-16T06:18:51;11.17;;;4.10;;
2644;SDS011;15377;48.540;9.268;2024-01-16T06:21:16;11.00;;;4.00;;
2644;SDS011;15377;48.540;9.268;2024-01-16T06:23:43;7.85;;;3.60;;
2644;SDS011;15377;48.540;9.268;2024-01-16T06:26:08;12.63;;;4.80;;
2644;SDS011;15377;48.540;9.268;2024-01-16T06:28:34;14.50;;;3.93;;
2644;SDS011;15377;48.540;9.268;2024-01-16T06:30:59;12.90;;;4.97;;
2644;SDS011;15377;48.540;9.268;2024-01-16T06:33:24;10.47;;;4.47;;
2644;SDS011;15377;48.540;9.268;2024-01-16T06:35:50;9.70;;;4.18;;
2644;SDS011;15377;48.540;9.268;2024-01-16T06:38:16;7.53;;;3.60;;
2644;SDS011;15377;48.540;9.268;2024-01-16T06:40:41;13.73;;;4.53;;
2644;SDS011;15377;48.540;9.268;2024-01-16T06:43:07;9.80;;;4.10;;
2644;SDS011;15377;48.540;9.268;2024-01-16T06:45:32;10.97;;;4.50;;
2644;SDS011;15377;48.540;9.268;2024-01-16T06:47:57;8.60;;;4.13;;
2644;SDS011;15377;48.540;9.268;2024-01-16T06:50:23;9.57;;;4.30;;
2644;SDS011;15377;48.540;9.268;2024-01-16T06:52:48;10.10;;;4.30;;
2644;SDS011;15377;48.540;9.268;2024-01-16T06:55:14;7.37;;;3.10;;
2644;SDS011;15377;48.540;9.268;2024-01-16T06:57:39;9.50;;;4.23;;
2644;SDS011;15377;48.540;9.268;2024-01-16T07:00:05;9.23;;;3.43;;
2644;SDS011;15377;48.540;9.268;2024-01-16T07:02:32;11.25;;;4.35;;
2644;SDS011;15377;48.540;9.268;2024-01-16T07:04:57;9.30;;;3.87;;
2644;SDS011;15377;48.540;9.268;2024-01-16T07:07:23;8.20;;;4.10;;
2644;SDS011;15377;48.540;9.268;2024-01-16T07:09:49;10.23;;;3.83;;
2644;SDS011;15377;48.540;9.268;2024-01-16T07:12:15;10.13;;;4.27;;
2644;SDS011;15377;48.540;9.268;2024-01-16T07:14:40;7.93;;;4.00;;
2644;SDS011;15377;48.540;9.268;2024-01-16T07:17:06;10.30;;;4.60;;
2644;SDS011;15377;48.540;9.268;2024-01-16T07:19:32;10.02;;;4.38;;
2644;SDS011;15377;48.540;9.268;2024-01-16T07:21:58;8.63;;;4.10;;
2644;SDS011;15377;48.540;9.268;2024-01-16T07:24:23;10.87;;;3.53;;
2644;SDS011;15377;48.540;9.268;2024-01-16T07:26:49;11.50;;;3.42;;
2644;SDS011;15377;48.540;9.268;2024-01-16T07:29:14;7.83;;;3.57;;
2644;SDS011;15377;48.540;9.268;2024-01-16T07:31:40;9.07;;;3.93;;
2644;SDS011;15377;48.540;9.268;2024-01-16T07:34:06;10.15;;;3.70;;
2644;SDS011;15377;48.540;9.268;2024-01-16T07:36:31;7.60;;;3.87;;
2644;SDS011;15377;48.540;9.268;2024-01-16T07:38:57;10.17;;;3.67;;
2644;SDS011;15377;48.540;9.268;2024-01-16T07:41:22;11.13;;;3.90;;
2644;SDS011;15377;48.540;9.268;2024-01-16T07:43:48;10.47;;;4.10;;
2644;SDS011;15377;48.540;9.268;2024-01-16T07:46:13;15.13;;;6.20;;
2644;SDS011;15377;48.540;9.268;2024-01-16T07:48:38;9.60;;;4.93;;
2644;SDS011;15377;48.540;9.268;2024-01-16T07:51:04;11.50;;;6.20;;
2644;SDS011;15377;48.540;9.268;2024-01-16T07:53:29;10.40;;;5.33;;
2644;SDS011;15377;48.540;9.268;2024-01-16T07:55:54;9.23;;;4.00;;
2644;SDS011;15377;48.540;9.268;2024-01-16T07:58:20;11.10;;;4.23;;
2644;SDS011;15377;48.540;9.268;2024-01-16T08:00:46;8.85;;;4.10;;
2644;SDS011;15377;48.540;9.268;2024-01-16T08:03:11;10.67;;;5.07;;
2644;SDS011;15377;48.540;9.268;2024-01-16T08:05:37;9.67;;;4.77;;
2644;SDS011;15377;48.540;9.268;2024-01-16T08:08:04;11.00;;;4.18;;
2644;SDS011;15377;48.540;9.268;2024-01-16T08:10:30;10.97;;;5.33;;
2644;SDS011;15377;48.540;9.268;2024-01-16T08:12:55;12.50;;;5.00;;
2644;SDS011;15377;48.540;9.268;2024-01-16T08:15:20;9.13;;;4.10;;
2644;SDS011;15377;48.540;9.268;2024-01-16T08:17:46;12.40;;;6.15;;
2644;SDS011;15377;48.540;9.268;2024-01-16T08:20:12;14.53;;;6.17;;
2644;SDS011;15377;48.540;9.268;2024-01-16T08:22:37;23.73;;;10.63;;
2644;SDS011;15377;48.540;9.268;2024-01-16T08:25:03;13.50;;;6.43;;
2644;SDS011;15377;48.540;9.268;2024-01-16T08:27:32;9.80;;;5.00;;
2644;SDS011;15377;48.540;9.268;2024-01-16T08:29:57;11.30;;;5.33;;
2644;SDS011;15377;48.540;9.268;2024-01-16T08:32:23;8.10;;;4.30;;
2644;SDS011;15377;48.540;9.268;2024-01-16T08:34:48;11.20;;;5.33;;
2644;SDS011;15377;48.540;9.268;2024-01-16T08:37:14;10.13;;;4.80;;
2644;SDS011;15377;48.540;9.268;2024-01-16T08:39:39;8.40;;;5.07;;
2644;SDS011;15377;48.540;9.268;2024-01-16T08:42:05;11.03;;;4.83;;
2644;SDS011;15377;48.540;9.268;2024-01-16T08:44:30;8.30;;;4.43;;
2644;SDS011;15377;48.540;9.268;2024-01-16T08:46:55;15.33;;;6.13;;
2644;SDS011;15377;48.540;9.268;2024-01-16T08:49:22;10.68;;;4.75;;
2644;SDS011;15377;48.540;9.268;2024-01-16T08:51:48;12.27;;;5.77;;
2644;SDS011;15377;48.540;9.268;2024-01-16T08:54:13;9.63;;;4.87;;
2644;SDS011;15377;48.540;9.268;2024-01-16T08:56:38;10.17;;;4.53;;
2644;SDS011;15377;48.540;9.268;2024-01-16T08:59:04;7.70;;;3.37;;
2644;SDS011;15377;48.540;9.268;2024-01-16T09:01:29;11.93;;;4.60;;
2644;SDS011;15377;48.540;9.268;2024-01-16T09:03:55;10.67;;;4.57;;
2644;SDS011;15377;48.540;9.268;2024-01-16T09:06:20;10.43;;;5.60;;
2644;SDS011;15377;48.540;9.268;2024-01-16T09:08:46;8.57;;;4.30;;
2644;SDS011;15377;48.540;9.268;2024-01-16T09:11:12;9.60;;;4.83;;
2644;SDS011;15377;48.540;9.268;2024-01-16T09:13:37;10.80;;;5.13;;
2644;SDS011;15377;48.540;9.268;2024-01-16T09:16:03;12.33;;;5.17;;
2644;SDS011;15377;48.540;9.268;2024-01-16T09:18:29;18.02;;;8.77;;
2644;SDS011;15377;48.540;9.268;2024-01-16T09:20:54;10.50;;;5.60;;
2644;SDS011;15377;48.540;9.268;2024-01-16T09:23:20;20.67;;;7.03;;
2644;SDS011;15377;48.540;9.268;2024-01-16T09:25:45;13.10;;;5.70;;
2644;SDS011;15377;48.540;9.268;2024-01-16T09:28:11;21.37;;;10.13;;
2644;SDS011;15377;48.540;9.268;2024-01-16T09:30:37;9.43;;;4.60;;
2644;SDS011;15377;48.540;9.268;2024-01-16T09:33:03;11.10;;;4.27;;
2644;SDS011;15377;48.540;9.268;2024-01-16T09:35:31;10.57;;;4.78;;
2644;SDS011;15377;48.540;9.268;2024-01-16T09:37:57;8.83;;;4.20;;
2644;SDS011;15377;48.540;9.268;2024-01-16T09:40:24;15.90;;;5.70;;
2644;SDS011;15377;48.540;9.268;2024-01-16T09:42:50;9.87;;;5.17;;
2644;SDS011;15377;48.540;9.268;2024-01-16T09:45:18;11.63;;;4.97;;
2644;SDS011;15377;48.540;9.268;2024-01-16T09:47:45;9.00;;;4.78;;
2644;SDS011;15377;48.540;9.268;2024-01-16T09:50:12;11.63;;;5.53;;
2644;SDS011;15377;48.540;9.268;2024-01-16T09:52:41;15.98;;;8.55;;
2644;SDS011;15377;48.540;9.268;2024-01-16T09:55:07;10.17;;;5.60;;
2644;SDS011;15377;48.540;9.268;2024-01-16T09:57:32;11.50;;;6.07;;
2644;SDS011;15377;48.540;9.268;2024-01-16T10:00:00;15.25;;;7.20;;
2644;SDS011;15377;48.540;9.268;2024-01-16T10:02:28;13.40;;;6.47;;
2644;SDS011;15377;48.540;9.268;2024-01-16T10:04:54;14.65;;;5.72;;
2644;SDS011;15377;48.540;9.268;2024-01-16T10:07:20;11.13;;;5.53;;
2644;SDS011;15377;48.540;9.268;2024-01-16T10:09:52;12.65;;;5.03;;
2644;SDS011;15377;48.540;9.268;2024-01-16T10:12:20;13.23;;;4.90;;
2644;SDS011;15377;48.540;9.268;2024-01-16T10:14:46;10.80;;;5.90;;
2644;SDS011;15377;48.540;9.268;2024-01-16T10:17:13;11.95;;;5.47;;
2644;SDS011;15377;48.540;9.268;2024-01-16T10:19:47;15.93;;;5.10;;
2644;SDS011;15377;48.540;9.268;2024-01-16T10:22:19;13.90;;;5.53;;
2644;SDS011;15377;48.540;9.268;2024-01-16T10:24:46;11.20;;;5.13;;
2644;SDS011;15377;48.540;9.268;2024-01-16T10:27:11;12.60;;;6.00;;
2644;SDS011;15377;48.540;9.268;2024-01-16T10:29:51;22.13;;;5.68;;
2644;SDS011;15377;48.540;9.268;2024-01-16T10:32:30;15.40;;;4.72;;
2644;SDS011;15377;48.540;9.268;2024-01-16T10:35:07;11.68;;;5.00;;
2644;SDS011;15377;48.540;9.268;2024-01-16T10:40:17;18.33;;;7.20;;
2644;SDS011;15377;48.540;9.268;2024-01-16T10:42:44;17.02;;;8.13;;
2644;SDS011;15377;48.540;9.268;2024-01-16T10:45:17;12.68;;;5.72;;
2644;SDS011;15377;48.540;9.268;2024-01-16T10:47:44;15.55;;;6.88;;
2644;SDS011;15377;48.540;9.268;2024-01-16T10:50:11;11.85;;;6.07;;
2644;SDS011;15377;48.540;9.268;2024-01-16T10:52:36;14.63;;;6.37;;
2644;SDS011;15377;48.540;9.268;2024-01-16T10:55:19;19.00;;;6.63;;
2644;SDS011;15377;48.540;9.268;2024-01-16T10:57:47;11.50;;;5.82;;
2644;SDS011;15377;48.540;9.268;2024-01-16T11:00:14;11.18;;;5.75;;
2644;SDS011;15377;48.540;9.268;2024-01-16T11:02:45;10.98;;;6.07;;
2644;SDS011;15377;48.540;9.268;2024-01-16T11:05:17;10.45;;;5.03;;
2644;SDS011;15377;48.540;9.268;2024-01-16T11:07:42;11.98;;;4.85;;
2644;SDS011;15377;48.540;9.268;2024-01-16T11:10:12;14.32;;;6.72;;
2644;SDS011;15377;48.540;9.268;2024-01-16T11:12:38;13.88;;;7.10;;
2644;SDS011;15377;48.540;9.268;2024-01-16T11:15:07;11.18;;;6.35;;
2644;SDS011;15377;48.540;9.268;2024-01-16T11:17:37;15.05;;;6.85;;
2644;SDS011;15377;48.540;9.268;2024-01-16T11:20:03;14.50;;;6.13;;
2644;SDS011;15377;48.540;9.268;2024-01-16T11:22:36;11.57;;;6.38;;
2644;SDS011;15377;48.540;9.268;2024-01-16T11:25:07;13.95;;;6.70;;
2644;SDS011;15377;48.540;9.268;2024-01-16T11:27:37;12.40;;;5.68;;
2644;SDS011;15377;48.540;9.268;2024-01-16T11:30:04;15.80;;;6.80;;
2644;SDS011;15377;48.540;9.268;2024-01-16T11:32:35;11.75;;;6.05;;
2644;SDS011;15377;48.540;9.268;2024-01-16T11:35:01;14.68;;;6.50;;
2644;SDS011;15377;48.540;9.268;2024-01-16T11:37:28;14.45;;;7.55;;
2644;SDS011;15377;48.540;9.268;2024-01-16T11:42:41;16.63;;;6.90;;
2644;SDS011;15377;48.540;9.268;2024-01-16T11:45:08;13.02;;;6.45;;
2644;SDS011;15377;48.540;9.268;2024-01-16T11:48:12;14.88;;;6.93;;
2644;SDS011;15377;48.540;9.268;2024-01-16T11:50:39;13.45;;;6.63;;
2644;SDS011;15377;48.540;9.268;2024-01-16T11:53:05;11.63;;;6.23;;
2644;SDS011;15377;48.540;9.268;2024-01-16T11:55:31;14.07;;;6.77;;
2644;SDS011;15377;48.540;9.268;2024-01-16T12:00:51;13.68;;;6.22;;
2644;SDS011;15377;48.540;9.268;2024-01-16T12:03:18;20.77;;;7.10;;
2644;SDS011;15377;48.540;9.268;2024-01-16T12:05:55;12.50;;;6.03;;
2644;SDS011;15377;48.540;9.268;2024-01-16T12:08:22;13.15;;;6.75;;
2644;SDS011;15377;48.540;9.268;2024-01-16T12:10:47;10.33;;;5.03;;
2644;SDS011;15377;48.540;9.268;2024-01-16T12:13:13;11.87;;;4.80;;
2644;SDS011;15377;48.540;9.268;2024-01-16T12:15:39;8.40;;;4.40;;
2644;SDS011;15377;48.540;9.268;2024-01-16T12:18:04;10.50;;;5.40;;
2644;SDS011;15377;48.540;9.268;2024-01-16T12:20:30;9.83;;;4.20;;
2644;SDS011;15377;48.540;9.268;2024-01-16T12:25:22;10.57;;;4.73;;
2644;SDS011;15377;48.540;9.268;2024-01-16T12:28:09;10.27;;;5.23;;
2644;SDS011;15377;48.540;9.268;2024-01-16T12:30:37;16.73;;;6.63;;
2644;SDS011;15377;48.540;9.268;2024-01-16T12:35:33;9.48;;;3.95;;
2644;SDS011;15377;48.540;9.268;2024-01-16T12:38:03;9.20;;;5.30;;
2644;SDS011;15377;48.540;9.268;2024-01-16T12:40:36;9.10;;;4.30;;
2644;SDS011;15377;48.540;9.268;2024-01-16T12:43:03;9.77;;;4.75;;
2644;SDS011;15377;48.540;9.268;2024-01-16T12:45:29;11.07;;;4.90;;
2644;SDS011;15377;48.540;9.268;2024-01-16T12:47:56;9.82;;;4.65;;
2644;SDS011;15377;48.540;9.268;2024-01-16T12:50:25;8.50;;;4.40;;
2644;SDS011;15377;48.540;9.268;2024-01-16T12:53:04;9.80;;;4.68;;
2644;SDS011;15377;48.540;9.268;2024-01-16T12:55:38;9.32;;;4.13;;
2644;SDS011;15377;48.540;9.268;2024-01-16T13:00:46;11.20;;;4.93;;
2644;SDS011;15377;48.540;9.268;2024-01-16T13:03:17;14.60;;;4.63;;
2644;SDS011;15377;48.540;9.268;2024-01-16T13:05:54;19.40;;;4.70;;
2644;SDS011;15377;48.540;9.268;2024-01-16T13:08:22;12.98;;;4.50;;
2644;SDS011;15377;48.540;9.268;2024-01-16T13:11:05;8.98;;;3.95;;
2644;SDS011;15377;48.540;9.268;2024-01-16T13:13:32;10.38;;;4.47;;
2644;SDS011;15377;48.540;9.268;2024-01-16T13:15:58;8.95;;;4.55;;
2644;SDS011;15377;48.540;9.268;2024-01-16T13:18:30;12.43;;;5.25;;
2644;SDS011;15377;48.540;9.268;2024-01-16T13:20:56;13.33;;;5.27;;
2644;SDS011;15377;48.540;9.268;2024-01-16T13:23:22;10.98;;;4.70;;
2644;SDS011;15377;48.540;9.268;2024-01-16T13:25:50;16.58;;;7.72;;
2644;SDS011;15377;48.540;9.268;2024-01-16T13:28:17;14.70;;;6.35;;
2644;SDS011;15377;48.540;9.268;2024-01-16T13:30:43;9.05;;;4.38;;
2644;SDS011;15377;48.540;9.268;2024-01-16T13:33:09;18.38;;;6.47;;
2644;SDS011;15377;48.540;9.268;2024-01-16T13:35:39;14.80;;;5.45;;
2644;SDS011;15377;48.540;9.268;2024-01-16T13:38:08;14.48;;;7.28;;
2644;SDS011;15377;48.540;9.268;2024-01-16T13:40:35;11.90;;;5.22;;
2644;SDS011;15377;48.540;9.268;2024-01-16T13:43:02;23.38;;;12.80;;
2644;SDS011;15377;48.540;9.268;2024-01-16T13:45:28;45.22;;;21.88;;
2644;SDS011;15377;48.540;9.268;2024-01-16T13:47:54;14.23;;;7.30;;
2644;SDS011;15377;48.540;9.268;2024-01-16T13:50:22;13.27;;;6.78;;
2644;SDS011;15377;48.540;9.268;2024-01-16T13:52:49;9.93;;;4.22;;
2644;SDS011;15377;48.540;9.268;2024-01-16T13:55:14;14.53;;;5.77;;
2644;SDS011;15377;48.540;9.268;2024-01-16T13:57:40;9.47;;;4.13;;
2644;SDS011;15377;48.540;9.268;2024-01-16T14:00:06;12.47;;;5.17;;
2644;SDS011;15377;48.540;9.268;2024-01-16T14:02:38;13.05;;;5.18;;
2644;SDS011;15377;48.540;9.268;2024-01-16T14:05:10;14.93;;;7.63;;
2644;SDS011;15377;48.540;9.268;2024-01-16T14:07:40;13.38;;;7.30;;
2644;SDS011;15377;48.540;9.268;2024-01-16T14:10:07;13.07;;;7.20;;
2644;SDS011;15377;48.540;9.268;2024-01-16T14:12:35;13.55;;;6.50;;
2644;SDS011;15377;48.540;9.268;2024-01-16T14:15:01;13.70;;;4.50;;
2644;SDS011;15377;48.540;9.268;2024-01-16T14:17:31;10.25;;;4.10;;
2644;SDS011;15377;48.540;9.268;2024-01-16T14:19:57;15.30;;;4.80;;
2644;SDS011;15377;48.540;9.268;2024-01-16T14:22:22;10.00;;;4.67;;
2644;SDS011;15377;48.540;9.268;2024-01-16T14:24:47;9.83;;;4.90;;
2644;SDS011;15377;48.540;9.268;2024-01-16T14:27:16;8.75;;;4.10;;
2644;SDS011;15377;48.540;9.268;2024-01-16T14:29:44;7.43;;;4.03;;
2644;SDS011;15377;48.540;9.268;2024-01-16T14:32:09;10.27;;;4.20;;
2644;SDS011;15377;48.540;9.268;2024-01-16T14:34:35;9.13;;;4.17;;
2644;SDS011;15377;48.540;9.268;2024-01-16T14:37:00;10.60;;;4.03;;
2644;SDS011;15377;48.540;9.268;2024-01-16T14:39:26;10.80;;;4.67;;
2644;SDS011;15377;48.540;9.268;2024-01-16T14:41:54;10.60;;;4.00;;
2644;SDS011;15377;48.540;9.268;2024-01-16T14:44:19;11.13;;;5.20;;
2644;SDS011;15377;48.540;9.268;2024-01-16T14:46:45;9.63;;;3.90;;
2644;SDS011;15377;48.540;9.268;2024-01-16T14:49:10;8.67;;;4.60;;
2644;SDS011;15377;48.540;9.268;2024-01-16T14:51:36;8.90;;;4.22;;
2644;SDS011;15377;48.540;9.268;2024-01-16T14:54:02;7.60;;;4.07;;
2644;SDS011;15377;48.540;9.268;2024-01-16T14:56:29;9.65;;;3.95;;
2644;SDS011;15377;48.540;9.268;2024-01-16T14:58:55;10.40;;;3.95;;
2644;SDS011;15377;48.540;9.268;2024-01-16T15:01:21;8.80;;;4.27;;
2644;SDS011;15377;48.540;9.268;2024-01-16T15:03:46;8.27;;;4.33;;
2644;SDS011;15377;48.540;9.268;2024-01-16T15:06:11;10.27;;;4.43;;
2644;SDS011;15377;48.540;9.268;2024-01-16T15:08:38;11.40;;;5.03;;